sensor_id;sensor_type;location;lat;lon;timestamp;P1;durP1;ratioP1;P2;durP2;ratioP2
74371;SDS011;62885;51.374;6.170;2023-02-15T00:01:44;21.35;;;10.48;;
74371;SDS011;62885;51.374;6.170;2023-02-15T00:04:09;22.95;;;10.57;;
74371;SDS011;62885;51.374;6.170;2023-02-15T00:06:38;18.30;;;10.35;;
74371;SDS011;62885;51.374;6.170;2023-02-15T00:09:03;20.02;;;9.95;;
74371;SDS011;62885;51.374;6.170;2023-02-15T00:11:28;23.05;;;10.77;;
74371;SDS011;62885;51.374;6.170;2023-02-15T00:14:21;21.45;;;9.18;;
74371;SDS011;62885;51.374;6.170;2023-02-15T00:16:48;20.55;;;10.45;;
74371;SDS011;62885;51.374;6.170;2023-02-15T00:19:19;18.67;;;9.23;;
74371;SDS011;62885;51.374;6.170;2023-02-15T00:21:45;18.38;;;9.38;;
74371;SDS011;62885;51.374;6.170;2023-02-15T00:24:13;17.05;;;9.20;;
74371;SDS011;62885;51.374;6.170;2023-02-15T00:26:39;22.48;;;9.75;;
74371;SDS011;62885;51.374;6.170;2023-02-15T00:29:07;18.30;;;9.02;;
74371;SDS011;62885;51.374;6.170;2023-02-15T00:31:35;19.30;;;10.57;;
74371;SDS011;62885;51.374;6.170;2023-02-15T00:34:09;19.58;;;10.15;;
74371;SDS011;62885;51.374;6.170;2023-02-15T00:36:37;19.10;;;8.68;;
74371;SDS011;62885;51.374;6.170;2023-02-15T00:39:03;20.58;;;9.93;;
74371;SDS011;62885;51.374;6.170;2023-02-15T00:41:32;25.30;;;10.82;;
74371;SDS011;62885;51.374;6.170;2023-02-15T00:43:58;20.60;;;9.75;;
74371;SDS011;62885;51.374;6.170;2023-02-15T00:46:23;19.23;;;9.32;;
74371;SDS011;62885;51.374;6.170;2023-02-15T00:48:48;18.92;;;9.23;;
74371;SDS011;62885;51.374;6.170;2023-02-15T00:51:14;20.95;;;10.20;;
74371;SDS011;62885;51.374;6.170;2023-02-15T00:53:39;20.38;;;8.57;;
74371;SDS011;62885;51.374;6.170;2023-02-15T00:56:05;21.52;;;11.35;;
74371;SDS011;62885;51.374;6.170;2023-02-15T00:58:30;19.88;;;9.90;;
74371;SDS011;62885;51.374;6.170;2023-02-15T01:01:01;18.63;;;9.68;;
74371;SDS011;62885;51.374;6.170;2023-02-15T01:03:32;23.73;;;10.00;;
74371;SDS011;62885;51.374;6.170;2023-02-15T01:05:58;20.02;;;10.25;;
74371;SDS011;62885;51.374;6.170;2023-02-15T01:08:24;19.75;;;9.85;;
74371;SDS011;62885;51.374;6.170;2023-02-15T01:10:49;20.17;;;9.63;;
74371;SDS011;62885;51.374;6.170;2023-02-15T01:13:15;18.70;;;9.32;;
74371;SDS011;62885;51.374;6.170;2023-02-15T01:15:41;21.42;;;10.18;;
74371;SDS011;62885;51.374;6.170;2023-02-15T01:18:07;24.55;;;11.15;;
74371;SDS011;62885;51.374;6.170;2023-02-15T01:20:34;20.05;;;11.07;;
74371;SDS011;62885;51.374;6.170;2023-02-15T01:23:01;20.33;;;9.95;;
74371;SDS011;62885;51.374;6.170;2023-02-15T01:25:27;21.50;;;9.85;;
74371;SDS011;62885;51.374;6.170;2023-02-15T01:27:53;20.15;;;9.15;;
74371;SDS011;62885;51.374;6.170;2023-02-15T01:30:18;25.17;;;10.60;;
74371;SDS011;62885;51.374;6.170;2023-02-15T01:32:43;18.38;;;8.90;;
74371;SDS011;62885;51.374;6.170;2023-02-15T01:35:09;19.33;;;9.73;;
74371;SDS011;62885;51.374;6.170;2023-02-15T01:37:35;19.13;;;10.18;;
74371;SDS011;62885;51.374;6.170;2023-02-15T01:40:02;19.08;;;9.43;;
74371;SDS011;62885;51.374;6.170;2023-02-15T01:42:29;22.83;;;10.60;;
74371;SDS011;62885;51.374;6.170;2023-02-15T01:44:56;20.05;;;10.13;;
74371;SDS011;62885;51.374;6.170;2023-02-15T01:47:32;21.42;;;8.90;;
74371;SDS011;62885;51.374;6.170;2023-02-15T01:50:08;21.33;;;10.23;;
74371;SDS011;62885;51.374;6.170;2023-02-15T01:52:39;21.35;;;10.57;;
74371;SDS011;62885;51.374;6.170;2023-02-15T01:55:08;21.95;;;9.95;;
74371;SDS011;62885;51.374;6.170;2023-02-15T01:57:34;21.27;;;9.85;;
74371;SDS011;62885;51.374;6.170;2023-02-15T02:00:00;19.10;;;9.43;;
74371;SDS011;62885;51.374;6.170;2023-02-15T02:02:28;18.75;;;9.35;;
74371;SDS011;62885;51.374;6.170;2023-02-15T02:04:54;23.08;;;10.65;;
74371;SDS011;62885;51.374;6.170;2023-02-15T02:07:26;18.55;;;9.63;;
74371;SDS011;62885;51.374;6.170;2023-02-15T02:09:53;18.98;;;9.82;;
74371;SDS011;62885;51.374;6.170;2023-02-15T02:12:19;23.45;;;10.35;;
74371;SDS011;62885;51.374;6.170;2023-02-15T02:14:46;21.73;;;10.25;;
74371;SDS011;62885;51.374;6.170;2023-02-15T02:17:16;20.42;;;10.40;;
74371;SDS011;62885;51.374;6.170;2023-02-15T02:36:39;17.23;;;8.57;;
74371;SDS011;62885;51.374;6.170;2023-02-15T02:39:08;17.95;;;9.50;;
74371;SDS011;62885;51.374;6.170;2023-02-15T02:41:45;19.65;;;9.30;;
74371;SDS011;62885;51.374;6.170;2023-02-15T02:49:33;19.20;;;10.73;;
74371;SDS011;62885;51.374;6.170;2023-02-15T02:52:01;17.70;;;9.30;;
74371;SDS011;62885;51.374;6.170;2023-02-15T02:54:28;21.70;;;11.13;;
74371;SDS011;62885;51.374;6.170;2023-02-15T02:56:58;21.67;;;10.93;;
74371;SDS011;62885;51.374;6.170;2023-02-15T02:59:31;22.95;;;10.95;;
74371;SDS011;62885;51.374;6.170;2023-02-15T03:04:28;21.13;;;10.43;;
74371;SDS011;62885;51.374;6.170;2023-02-15T03:06:58;21.73;;;10.45;;
74371;SDS011;62885;51.374;6.170;2023-02-15T03:09:31;22.17;;;10.23;;
74371;SDS011;62885;51.374;6.170;2023-02-15T03:12:15;20.90;;;10.77;;
74371;SDS011;62885;51.374;6.170;2023-02-15T03:14:44;22.40;;;9.48;;
74371;SDS011;62885;51.374;6.170;2023-02-15T03:17:13;20.00;;;10.27;;
74371;SDS011;62885;51.374;6.170;2023-02-15T03:19:41;23.63;;;11.32;;
74371;SDS011;62885;51.374;6.170;2023-02-15T03:22:15;21.15;;;10.70;;
74371;SDS011;62885;51.374;6.170;2023-02-15T03:24:51;22.45;;;10.05;;
74371;SDS011;62885;51.374;6.170;2023-02-15T03:27:19;21.15;;;11.68;;
74371;SDS011;62885;51.374;6.170;2023-02-15T03:29:51;22.70;;;11.20;;
74371;SDS011;62885;51.374;6.170;2023-02-15T03:32:20;20.27;;;11.00;;
74371;SDS011;62885;51.374;6.170;2023-02-15T03:34:46;21.80;;;10.30;;
74371;SDS011;62885;51.374;6.170;2023-02-15T03:37:17;21.35;;;10.80;;
74371;SDS011;62885;51.374;6.170;2023-02-15T03:39:52;22.05;;;10.98;;
74371;SDS011;62885;51.374;6.170;2023-02-15T03:42:25;19.65;;;9.98;;
74371;SDS011;62885;51.374;6.170;2023-02-15T03:44:58;20.90;;;10.30;;
74371;SDS011;62885;51.374;6.170;2023-02-15T03:47:33;21.98;;;10.52;;
74371;SDS011;62885;51.374;6.170;2023-02-15T03:50:04;21.45;;;10.65;;
74371;SDS011;62885;51.374;6.170;2023-02-15T03:52:50;19.13;;;8.98;;
74371;SDS011;62885;51.374;6.170;2023-02-15T03:55:17;25.05;;;10.93;;
74371;SDS011;62885;51.374;6.170;2023-02-15T03:57:42;23.65;;;11.32;;
74371;SDS011;62885;51.374;6.170;2023-02-15T04:00:31;20.48;;;9.95;;
74371;SDS011;62885;51.374;6.170;2023-02-15T04:06:01;24.92;;;10.90;;
74371;SDS011;62885;51.374;6.170;2023-02-15T04:08:28;24.65;;;11.80;;
74371;SDS011;62885;51.374;6.170;2023-02-15T04:11:11;20.42;;;10.38;;
74371;SDS011;62885;51.374;6.170;2023-02-15T04:13:37;22.27;;;10.13;;
74371;SDS011;62885;51.374;6.170;2023-02-15T04:16:02;24.67;;;10.88;;
74371;SDS011;62885;51.374;6.170;2023-02-15T04:21:19;22.40;;;10.27;;
74371;SDS011;62885;51.374;6.170;2023-02-15T04:24:03;22.52;;;10.30;;
74371;SDS011;62885;51.374;6.170;2023-02-15T04:26:47;19.88;;;11.20;;
74371;SDS011;62885;51.374;6.170;2023-02-15T04:29:13;21.60;;;9.77;;
74371;SDS011;62885;51.374;6.170;2023-02-15T04:31:41;19.30;;;9.25;;
74371;SDS011;62885;51.374;6.170;2023-02-15T04:34:07;22.45;;;9.90;;
74371;SDS011;62885;51.374;6.170;2023-02-15T04:36:33;22.98;;;10.05;;
74371;SDS011;62885;51.374;6.170;2023-02-15T04:38:58;24.15;;;10.77;;
74371;SDS011;62885;51.374;6.170;2023-02-15T04:41:24;23.88;;;10.23;;
74371;SDS011;62885;51.374;6.170;2023-02-15T04:43:49;27.45;;;11.38;;
74371;SDS011;62885;51.374;6.170;2023-02-15T04:46:14;24.90;;;12.55;;
74371;SDS011;62885;51.374;6.170;2023-02-15T04:48:40;22.10;;;10.82;;
74371;SDS011;62885;51.374;6.170;2023-02-15T04:51:06;27.05;;;11.20;;
74371;SDS011;62885;51.374;6.170;2023-02-15T04:53:32;29.42;;;14.52;;
74371;SDS011;62885;51.374;6.170;2023-02-15T04:55:57;38.15;;;20.58;;
74371;SDS011;62885;51.374;6.170;2023-02-15T04:58:23;24.50;;;12.77;;
74371;SDS011;62885;51.374;6.170;2023-02-15T05:00:48;24.55;;;12.23;;
74371;SDS011;62885;51.374;6.170;2023-02-15T05:03:13;22.88;;;11.63;;
74371;SDS011;62885;51.374;6.170;2023-02-15T05:05:39;26.45;;;10.90;;
74371;SDS011;62885;51.374;6.170;2023-02-15T05:08:05;24.25;;;10.57;;
74371;SDS011;62885;51.374;6.170;2023-02-15T05:10:30;26.05;;;10.48;;
74371;SDS011;62885;51.374;6.170;2023-02-15T05:12:56;21.83;;;9.70;;
74371;SDS011;62885;51.374;6.170;2023-02-15T05:15:21;22.58;;;10.05;;
74371;SDS011;62885;51.374;6.170;2023-02-15T05:17:47;22.48;;;10.38;;
74371;SDS011;62885;51.374;6.170;2023-02-15T05:20:12;25.17;;;10.65;;
74371;SDS011;62885;51.374;6.170;2023-02-15T05:22:37;18.63;;;10.18;;
74371;SDS011;62885;51.374;6.170;2023-02-15T05:25:03;23.65;;;10.85;;
74371;SDS011;62885;51.374;6.170;2023-02-15T05:27:47;21.40;;;11.18;;
74371;SDS011;62885;51.374;6.170;2023-02-15T05:30:31;22.00;;;9.05;;
74371;SDS011;62885;51.374;6.170;2023-02-15T05:32:56;23.25;;;9.70;;
74371;SDS011;62885;51.374;6.170;2023-02-15T05:35:24;22.90;;;11.10;;
74371;SDS011;62885;51.374;6.170;2023-02-15T05:37:49;22.42;;;10.73;;
74371;SDS011;62885;51.374;6.170;2023-02-15T05:40:14;24.30;;;11.43;;
74371;SDS011;62885;51.374;6.170;2023-02-15T05:42:40;19.02;;;10.38;;
74371;SDS011;62885;51.374;6.170;2023-02-15T05:45:05;21.00;;;9.40;;
74371;SDS011;62885;51.374;6.170;2023-02-15T05:47:31;24.58;;;11.55;;
74371;SDS011;62885;51.374;6.170;2023-02-15T05:49:56;26.60;;;10.40;;
74371;SDS011;62885;51.374;6.170;2023-02-15T05:52:22;20.98;;;9.88;;
74371;SDS011;62885;51.374;6.170;2023-02-15T05:54:47;23.58;;;10.68;;
74371;SDS011;62885;51.374;6.170;2023-02-15T05:57:12;22.45;;;11.32;;
74371;SDS011;62885;51.374;6.170;2023-02-15T05:59:38;20.73;;;11.10;;
74371;SDS011;62885;51.374;6.170;2023-02-15T06:02:03;23.08;;;11.05;;
74371;SDS011;62885;51.374;6.170;2023-02-15T06:04:29;20.13;;;9.98;;
74371;SDS011;62885;51.374;6.170;2023-02-15T06:06:54;25.08;;;12.65;;
74371;SDS011;62885;51.374;6.170;2023-02-15T06:09:19;24.83;;;12.20;;
74371;SDS011;62885;51.374;6.170;2023-02-15T06:11:45;24.88;;;11.38;;
74371;SDS011;62885;51.374;6.170;2023-02-15T06:14:10;23.98;;;12.52;;
74371;SDS011;62885;51.374;6.170;2023-02-15T06:16:36;23.95;;;11.10;;
74371;SDS011;62885;51.374;6.170;2023-02-15T06:19:01;25.92;;;11.32;;
74371;SDS011;62885;51.374;6.170;2023-02-15T06:21:28;22.00;;;11.00;;
74371;SDS011;62885;51.374;6.170;2023-02-15T06:23:55;19.30;;;10.25;;
74371;SDS011;62885;51.374;6.170;2023-02-15T06:26:20;21.10;;;10.82;;
74371;SDS011;62885;51.374;6.170;2023-02-15T06:28:45;23.25;;;10.68;;
74371;SDS011;62885;51.374;6.170;2023-02-15T06:31:11;23.58;;;11.13;;
74371;SDS011;62885;51.374;6.170;2023-02-15T06:33:36;22.15;;;11.18;;
74371;SDS011;62885;51.374;6.170;2023-02-15T06:36:01;18.52;;;9.75;;
74371;SDS011;62885;51.374;6.170;2023-02-15T06:38:28;25.50;;;10.57;;
74371;SDS011;62885;51.374;6.170;2023-02-15T06:40:54;26.20;;;11.15;;
74371;SDS011;62885;51.374;6.170;2023-02-15T06:43:20;23.48;;;10.75;;
74371;SDS011;62885;51.374;6.170;2023-02-15T06:45:45;22.10;;;10.35;;
74371;SDS011;62885;51.374;6.170;2023-02-15T06:48:10;22.48;;;10.00;;
74371;SDS011;62885;51.374;6.170;2023-02-15T06:50:36;20.95;;;10.20;;
74371;SDS011;62885;51.374;6.170;2023-02-15T06:53:02;21.98;;;11.27;;
74371;SDS011;62885;51.374;6.170;2023-02-15T06:55:27;28.00;;;11.07;;
74371;SDS011;62885;51.374;6.170;2023-02-15T06:57:53;22.35;;;10.43;;
74371;SDS011;62885;51.374;6.170;2023-02-15T07:00:18;20.98;;;9.77;;
74371;SDS011;62885;51.374;6.170;2023-02-15T07:02:44;25.73;;;10.77;;
74371;SDS011;62885;51.374;6.170;2023-02-15T07:05:10;23.02;;;10.82;;
74371;SDS011;62885;51.374;6.170;2023-02-15T07:07:35;24.65;;;9.27;;
74371;SDS011;62885;51.374;6.170;2023-02-15T07:10:01;24.65;;;10.95;;
74371;SDS011;62885;51.374;6.170;2023-02-15T07:12:27;24.88;;;12.18;;
74371;SDS011;62885;51.374;6.170;2023-02-15T07:15:11;23.02;;;10.07;;
74371;SDS011;62885;51.374;6.170;2023-02-15T07:17:38;23.63;;;11.23;;
74371;SDS011;62885;51.374;6.170;2023-02-15T07:20:06;22.67;;;9.05;;
74371;SDS011;62885;51.374;6.170;2023-02-15T07:22:36;18.65;;;9.40;;
74371;SDS011;62885;51.374;6.170;2023-02-15T07:25:03;24.08;;;11.10;;
74371;SDS011;62885;51.374;6.170;2023-02-15T07:27:30;24.55;;;12.18;;
74371;SDS011;62885;51.374;6.170;2023-02-15T07:29:56;25.88;;;10.93;;
74371;SDS011;62885;51.374;6.170;2023-02-15T07:32:21;27.55;;;12.02;;
74371;SDS011;62885;51.374;6.170;2023-02-15T07:34:46;20.90;;;9.40;;
74371;SDS011;62885;51.374;6.170;2023-02-15T07:37:12;23.17;;;10.02;;
74371;SDS011;62885;51.374;6.170;2023-02-15T07:39:37;23.60;;;9.77;;
74371;SDS011;62885;51.374;6.170;2023-02-15T07:42:02;24.13;;;10.77;;
74371;SDS011;62885;51.374;6.170;2023-02-15T07:44:28;20.67;;;9.52;;
74371;SDS011;62885;51.374;6.170;2023-02-15T07:46:53;24.48;;;11.00;;
74371;SDS011;62885;51.374;6.170;2023-02-15T07:49:18;23.73;;;11.15;;
74371;SDS011;62885;51.374;6.170;2023-02-15T07:51:44;21.55;;;10.90;;
74371;SDS011;62885;51.374;6.170;2023-02-15T07:54:10;21.48;;;11.63;;
74371;SDS011;62885;51.374;6.170;2023-02-15T07:56:35;23.58;;;10.40;;
74371;SDS011;62885;51.374;6.170;2023-02-15T07:59:01;26.33;;;11.52;;
74371;SDS011;62885;51.374;6.170;2023-02-15T08:01:34;23.52;;;10.40;;
74371;SDS011;62885;51.374;6.170;2023-02-15T08:04:01;22.00;;;10.90;;
74371;SDS011;62885;51.374;6.170;2023-02-15T08:06:29;24.45;;;10.20;;
74371;SDS011;62885;51.374;6.170;2023-02-15T08:08:57;19.35;;;10.38;;
74371;SDS011;62885;51.374;6.170;2023-02-15T08:11:23;19.92;;;10.73;;
74371;SDS011;62885;51.374;6.170;2023-02-15T08:18:51;20.92;;;10.45;;
74371;SDS011;62885;51.374;6.170;2023-02-15T08:21:18;21.08;;;10.77;;
74371;SDS011;62885;51.374;6.170;2023-02-15T08:23:44;24.38;;;11.02;;
74371;SDS011;62885;51.374;6.170;2023-02-15T08:26:09;26.23;;;12.07;;
74371;SDS011;62885;51.374;6.170;2023-02-15T08:28:35;27.95;;;10.15;;
74371;SDS011;62885;51.374;6.170;2023-02-15T08:31:07;21.45;;;11.07;;
74371;SDS011;62885;51.374;6.170;2023-02-15T08:33:37;22.52;;;10.50;;
74371;SDS011;62885;51.374;6.170;2023-02-15T08:36:07;20.83;;;10.57;;
74371;SDS011;62885;51.374;6.170;2023-02-15T08:38:35;24.38;;;11.00;;
74371;SDS011;62885;51.374;6.170;2023-02-15T08:41:14;25.08;;;10.65;;
74371;SDS011;62885;51.374;6.170;2023-02-15T08:43:41;20.10;;;10.48;;
74371;SDS011;62885;51.374;6.170;2023-02-15T08:46:08;21.98;;;10.52;;
74371;SDS011;62885;51.374;6.170;2023-02-15T08:48:35;21.83;;;10.40;;
74371;SDS011;62885;51.374;6.170;2023-02-15T08:51:04;21.48;;;8.68;;
74371;SDS011;62885;51.374;6.170;2023-02-15T08:53:41;21.30;;;10.65;;
74371;SDS011;62885;51.374;6.170;2023-02-15T08:56:08;20.10;;;9.38;;
74371;SDS011;62885;51.374;6.170;2023-02-15T08:58:34;24.08;;;10.73;;
74371;SDS011;62885;51.374;6.170;2023-02-15T09:01:00;20.42;;;10.40;;
74371;SDS011;62885;51.374;6.170;2023-02-15T09:03:29;24.42;;;10.23;;
74371;SDS011;62885;51.374;6.170;2023-02-15T09:05:59;22.92;;;10.38;;
74371;SDS011;62885;51.374;6.170;2023-02-15T09:08:26;21.33;;;11.00;;
74371;SDS011;62885;51.374;6.170;2023-02-15T09:10:51;19.00;;;9.95;;
74371;SDS011;62885;51.374;6.170;2023-02-15T09:13:17;23.50;;;10.52;;
74371;SDS011;62885;51.374;6.170;2023-02-15T09:15:42;19.70;;;10.30;;
74371;SDS011;62885;51.374;6.170;2023-02-15T09:18:08;23.38;;;11.15;;
74371;SDS011;62885;51.374;6.170;2023-02-15T09:20:36;24.10;;;11.52;;
74371;SDS011;62885;51.374;6.170;2023-02-15T09:23:02;20.90;;;11.90;;
74371;SDS011;62885;51.374;6.170;2023-02-15T09:25:28;26.80;;;11.45;;
74371;SDS011;62885;51.374;6.170;2023-02-15T09:27:53;25.77;;;11.88;;
74371;SDS011;62885;51.374;6.170;2023-02-15T09:30:19;20.55;;;10.43;;
74371;SDS011;62885;51.374;6.170;2023-02-15T09:32:44;24.63;;;12.25;;
74371;SDS011;62885;51.374;6.170;2023-02-15T09:35:13;22.00;;;10.65;;
74371;SDS011;62885;51.374;6.170;2023-02-15T09:37:38;23.33;;;11.05;;
74371;SDS011;62885;51.374;6.170;2023-02-15T09:40:04;22.10;;;10.27;;
74371;SDS011;62885;51.374;6.170;2023-02-15T09:43:12;21.45;;;11.38;;
74371;SDS011;62885;51.374;6.170;2023-02-15T09:49:00;26.08;;;10.93;;
74371;SDS011;62885;51.374;6.170;2023-02-15T09:51:38;20.48;;;10.73;;
74371;SDS011;62885;51.374;6.170;2023-02-15T09:54:22;24.30;;;10.27;;
74371;SDS011;62885;51.374;6.170;2023-02-15T09:57:05;19.55;;;9.73;;
74371;SDS011;62885;51.374;6.170;2023-02-15T09:59:45;24.58;;;10.68;;
74371;SDS011;62885;51.374;6.170;2023-02-15T10:05:10;21.20;;;10.68;;
74371;SDS011;62885;51.374;6.170;2023-02-15T10:13:53;21.77;;;9.82;;
74371;SDS011;62885;51.374;6.170;2023-02-15T10:20:28;20.35;;;10.68;;
74371;SDS011;62885;51.374;6.170;2023-02-15T10:27:54;24.00;;;11.85;;
74371;SDS011;62885;51.374;6.170;2023-02-15T10:30:31;21.60;;;11.10;;
74371;SDS011;62885;51.374;6.170;2023-02-15T10:33:04;22.63;;;11.35;;
74371;SDS011;62885;51.374;6.170;2023-02-15T10:46:59;23.75;;;11.23;;
74371;SDS011;62885;51.374;6.170;2023-02-15T10:49:45;21.55;;;10.65;;
74371;SDS011;62885;51.374;6.170;2023-02-15T10:55:06;22.48;;;10.27;;
74371;SDS011;62885;51.374;6.170;2023-02-15T11:00:09;19.48;;;10.02;;
74371;SDS011;62885;51.374;6.170;2023-02-15T11:08:14;21.38;;;11.10;;
74371;SDS011;62885;51.374;6.170;2023-02-15T11:13:27;24.88;;;11.65;;
74371;SDS011;62885;51.374;6.170;2023-02-15T11:16:03;23.20;;;11.50;;
74371;SDS011;62885;51.374;6.170;2023-02-15T11:18:40;24.13;;;10.93;;
74371;SDS011;62885;51.374;6.170;2023-02-15T11:23:44;21.35;;;10.68;;
74371;SDS011;62885;51.374;6.170;2023-02-15T11:26:14;23.75;;;11.32;;
74371;SDS011;62885;51.374;6.170;2023-02-15T11:28:49;23.30;;;11.32;;
74371;SDS011;62885;51.374;6.170;2023-02-15T11:31:21;21.30;;;10.80;;
74371;SDS011;62885;51.374;6.170;2023-02-15T11:33:54;24.23;;;11.45;;
74371;SDS011;62885;51.374;6.170;2023-02-15T11:36:26;20.65;;;11.02;;
74371;SDS011;62885;51.374;6.170;2023-02-15T11:38:57;21.50;;;10.75;;
74371;SDS011;62885;51.374;6.170;2023-02-15T11:41:28;23.67;;;10.82;;
74371;SDS011;62885;51.374;6.170;2023-02-15T11:44:07;25.67;;;11.73;;
74371;SDS011;62885;51.374;6.170;2023-02-15T11:46:40;22.85;;;12.00;;
74371;SDS011;62885;51.374;6.170;2023-02-15T11:49:48;26.35;;;12.18;;
74371;SDS011;62885;51.374;6.170;2023-02-15T11:51:56;22.00;;;11.35;;
74371;SDS011;62885;51.374;6.170;2023-02-15T11:54:29;20.85;;;11.48;;
74371;SDS011;62885;51.374;6.170;2023-02-15T11:57:02;22.00;;;11.48;;
74371;SDS011;62885;51.374;6.170;2023-02-15T11:59:44;23.70;;;12.05;;
74371;SDS011;62885;51.374;6.170;2023-02-15T12:02:16;21.25;;;10.38;;
74371;SDS011;62885;51.374;6.170;2023-02-15T12:07:57;23.60;;;9.55;;
74371;SDS011;62885;51.374;6.170;2023-02-15T12:12:47;20.92;;;11.10;;
74371;SDS011;62885;51.374;6.170;2023-02-15T12:15:13;25.58;;;11.40;;
74371;SDS011;62885;51.374;6.170;2023-02-15T12:17:39;17.98;;;10.40;;
74371;SDS011;62885;51.374;6.170;2023-02-15T12:22:38;23.00;;;10.83;;
74371;SDS011;62885;51.374;6.170;2023-02-15T12:25:25;22.52;;;10.95;;
74371;SDS011;62885;51.374;6.170;2023-02-15T12:27:54;22.85;;;10.85;;
74371;SDS011;62885;51.374;6.170;2023-02-15T12:30:38;20.00;;;11.05;;
74371;SDS011;62885;51.374;6.170;2023-02-15T12:33:14;25.33;;;11.27;;
74371;SDS011;62885;51.374;6.170;2023-02-15T12:36:08;20.63;;;11.60;;
74371;SDS011;62885;51.374;6.170;2023-02-15T12:38:37;22.73;;;10.73;;
74371;SDS011;62885;51.374;6.170;2023-02-15T12:41:04;20.42;;;11.00;;
74371;SDS011;62885;51.374;6.170;2023-02-15T12:43:46;22.00;;;11.80;;
74371;SDS011;62885;51.374;6.170;2023-02-15T12:48:46;25.20;;;11.98;;
74371;SDS011;62885;51.374;6.170;2023-02-15T12:51:13;20.58;;;10.75;;
74371;SDS011;62885;51.374;6.170;2023-02-15T12:53:40;24.50;;;12.18;;
74371;SDS011;62885;51.374;6.170;2023-02-15T12:56:07;23.33;;;10.63;;
74371;SDS011;62885;51.374;6.170;2023-02-15T12:58:35;21.23;;;10.40;;
74371;SDS011;62885;51.374;6.170;2023-02-15T13:03:33;18.92;;;11.10;;
74371;SDS011;62885;51.374;6.170;2023-02-15T13:05:59;24.63;;;11.25;;
74371;SDS011;62885;51.374;6.170;2023-02-15T13:13:30;20.58;;;11.50;;
74371;SDS011;62885;51.374;6.170;2023-02-15T13:16:02;25.63;;;11.45;;
74371;SDS011;62885;51.374;6.170;2023-02-15T13:18:34;22.17;;;11.80;;
74371;SDS011;62885;51.374;6.170;2023-02-15T13:21:14;22.92;;;10.80;;
74371;SDS011;62885;51.374;6.170;2023-02-15T13:23:47;22.15;;;11.68;;
74371;SDS011;62885;51.374;6.170;2023-02-15T13:26:20;21.45;;;11.60;;
74371;SDS011;62885;51.374;6.170;2023-02-15T13:28:49;21.10;;;10.57;;
74371;SDS011;62885;51.374;6.170;2023-02-15T13:33:49;21.08;;;10.25;;
74371;SDS011;62885;51.374;6.170;2023-02-15T13:36:54;19.38;;;10.38;;
74371;SDS011;62885;51.374;6.170;2023-02-15T13:39:27;20.02;;;10.93;;
74371;SDS011;62885;51.374;6.170;2023-02-15T13:42:18;23.55;;;10.38;;
74371;SDS011;62885;51.374;6.170;2023-02-15T13:44:57;22.70;;;11.68;;
74371;SDS011;62885;51.374;6.170;2023-02-15T14:01:10;20.80;;;9.45;;
74371;SDS011;62885;51.374;6.170;2023-02-15T14:15:05;20.88;;;9.98;;
74371;SDS011;62885;51.374;6.170;2023-02-15T14:18:01;25.00;;;11.63;;
74371;SDS011;62885;51.374;6.170;2023-02-15T14:21:14;23.00;;;10.65;;
74371;SDS011;62885;51.374;6.170;2023-02-15T14:26:21;21.60;;;10.88;;
74371;SDS011;62885;51.374;6.170;2023-02-15T14:31:43;19.42;;;10.32;;
74371;SDS011;62885;51.374;6.170;2023-02-15T14:34:18;20.75;;;10.77;;
74371;SDS011;62885;51.374;6.170;2023-02-15T14:36:49;22.45;;;11.05;;
74371;SDS011;62885;51.374;6.170;2023-02-15T14:42:04;20.90;;;11.13;;
74371;SDS011;62885;51.374;6.170;2023-02-15T14:44:42;19.40;;;11.18;;
74371;SDS011;62885;51.374;6.170;2023-02-15T14:47:22;23.17;;;10.68;;
74371;SDS011;62885;51.374;6.170;2023-02-15T14:49:55;26.23;;;11.45;;
74371;SDS011;62885;51.374;6.170;2023-02-15T14:52:20;21.05;;;11.60;;
74371;SDS011;62885;51.374;6.170;2023-02-15T15:04:55;22.35;;;10.68;;
74371;SDS011;62885;51.374;6.170;2023-02-15T15:07:41;23.58;;;11.65;;
74371;SDS011;62885;51.374;6.170;2023-02-15T15:12:42;21.02;;;9.98;;
74371;SDS011;62885;51.374;6.170;2023-02-15T15:15:13;20.98;;;10.75;;
74371;SDS011;62885;51.374;6.170;2023-02-15T15:18:02;17.88;;;10.48;;
74371;SDS011;62885;51.374;6.170;2023-02-15T15:25:45;22.27;;;11.65;;
74371;SDS011;62885;51.374;6.170;2023-02-15T15:30:57;23.30;;;11.45;;
74371;SDS011;62885;51.374;6.170;2023-02-15T15:39:20;21.02;;;11.23;;
74371;SDS011;62885;51.374;6.170;2023-02-15T15:42:22;24.98;;;11.75;;
74371;SDS011;62885;51.374;6.170;2023-02-15T15:48:26;21.95;;;11.60;;
74371;SDS011;62885;51.374;6.170;2023-02-15T15:50:59;24.15;;;12.32;;
74371;SDS011;62885;51.374;6.170;2023-02-15T15:53:30;23.15;;;12.07;;
74371;SDS011;62885;51.374;6.170;2023-02-15T15:56:03;19.77;;;10.70;;
74371;SDS011;62885;51.374;6.170;2023-02-15T15:58:32;23.15;;;12.05;;
74371;SDS011;62885;51.374;6.170;2023-02-15T16:01:04;24.33;;;11.63;;
74371;SDS011;62885;51.374;6.170;2023-02-15T16:03:34;21.52;;;11.48;;
74371;SDS011;62885;51.374;6.170;2023-02-15T16:05:59;23.83;;;12.45;;
74371;SDS011;62885;51.374;6.170;2023-02-15T16:08:29;23.83;;;11.70;;
74371;SDS011;62885;51.374;6.170;2023-02-15T16:10:57;25.42;;;11.30;;
74371;SDS011;62885;51.374;6.170;2023-02-15T16:13:23;27.90;;;11.55;;
74371;SDS011;62885;51.374;6.170;2023-02-15T16:15:51;21.33;;;11.30;;
74371;SDS011;62885;51.374;6.170;2023-02-15T16:18:19;22.40;;;12.82;;
74371;SDS011;62885;51.374;6.170;2023-02-15T16:20:57;24.80;;;13.35;;
74371;SDS011;62885;51.374;6.170;2023-02-15T16:29:16;25.08;;;12.82;;
74371;SDS011;62885;51.374;6.170;2023-02-15T16:31:43;26.40;;;13.02;;
74371;SDS011;62885;51.374;6.170;2023-02-15T16:34:22;29.30;;;13.88;;
74371;SDS011;62885;51.374;6.170;2023-02-15T16:36:47;23.40;;;13.13;;
74371;SDS011;62885;51.374;6.170;2023-02-15T16:39:17;26.77;;;13.13;;
74371;SDS011;62885;51.374;6.170;2023-02-15T16:41:45;24.90;;;12.00;;
74371;SDS011;62885;51.374;6.170;2023-02-15T16:44:14;28.38;;;12.70;;
74371;SDS011;62885;51.374;6.170;2023-02-15T16:46:48;23.70;;;12.35;;
74371;SDS011;62885;51.374;6.170;2023-02-15T16:49:20;21.92;;;12.05;;
74371;SDS011;62885;51.374;6.170;2023-02-15T16:51:57;28.08;;;14.80;;
74371;SDS011;62885;51.374;6.170;2023-02-15T16:54:27;28.55;;;13.80;;
74371;SDS011;62885;51.374;6.170;2023-02-15T16:56:54;22.90;;;13.02;;
74371;SDS011;62885;51.374;6.170;2023-02-15T16:59:28;25.88;;;13.13;;
74371;SDS011;62885;51.374;6.170;2023-02-15T17:02:13;27.48;;;13.68;;
74371;SDS011;62885;51.374;6.170;2023-02-15T17:04:41;24.15;;;13.27;;
74371;SDS011;62885;51.374;6.170;2023-02-15T17:07:19;28.80;;;13.23;;
74371;SDS011;62885;51.374;6.170;2023-02-15T17:09:55;26.73;;;13.85;;
74371;SDS011;62885;51.374;6.170;2023-02-15T17:15:29;22.52;;;12.35;;
74371;SDS011;62885;51.374;6.170;2023-02-15T17:20:38;26.58;;;13.07;;
74371;SDS011;62885;51.374;6.170;2023-02-15T17:25:55;27.00;;;13.63;;
74371;SDS011;62885;51.374;6.170;2023-02-15T17:28:23;25.17;;;12.93;;
74371;SDS011;62885;51.374;6.170;2023-02-15T17:30:51;24.58;;;13.30;;
74371;SDS011;62885;51.374;6.170;2023-02-15T17:38:34;23.33;;;12.15;;
74371;SDS011;62885;51.374;6.170;2023-02-15T17:41:00;26.33;;;13.20;;
74371;SDS011;62885;51.374;6.170;2023-02-15T17:43:25;24.27;;;13.57;;
74371;SDS011;62885;51.374;6.170;2023-02-15T17:45:51;27.02;;;13.48;;
74371;SDS011;62885;51.374;6.170;2023-02-15T17:48:21;28.77;;;15.20;;